Liverpool, United Kingdom
Current Conditions -  °F | °C
As of 8:20 PM on Tuesday 21 Oct 2014 (Local Time) from EGGP Reporting Station
Rain Showers Rain Showers  
Wind Chill: 38°   Ceiling: Unl
Heat Index: 46°   Visibility: 5mi
Dew Point: 41°   Wind: 24mph
Humidity: 81%   Direction: 310°NW
Pressure: 30"   Gusts: 45mph
Location:  53.41°N, 2.98°W
Report Text: EGGP 211920Z 31021G39KT 8000 SHRA FEW021 SCT029 08/05 Q1016
Loading
Personal Weather Stations






























Interactive Weather Map
Tropical Storm Tracking
New forecast layout! Learn more

10-Day Weather Forecast

Advertisements
Track Severe Weather on mobile